createdAt,value
2024-05-09T00:00:30.021Z,35.33
2024-05-09T00:03:01.706Z,40.47
2024-05-09T00:05:28.219Z,44.07
2024-05-09T00:07:54.777Z,47.44
2024-05-09T00:10:28.852Z,49.36
2024-05-09T00:13:01.547Z,43.22
2024-05-09T00:15:28.016Z,42.09
2024-05-09T00:17:54.776Z,44.80
2024-05-09T00:20:28.086Z,45.80
2024-05-09T00:22:59.933Z,51.38
2024-05-09T00:25:26.440Z,49.11
2024-05-09T00:27:52.913Z,44.64
2024-05-09T00:30:27.937Z,44.93
2024-05-09T00:32:59.776Z,41.88
2024-05-09T00:35:26.416Z,40.97
2024-05-09T00:37:52.975Z,44.02
2024-05-09T00:40:27.257Z,45.75
2024-05-09T00:43:02.042Z,53.14
2024-05-09T00:45:28.498Z,54.24
2024-05-09T00:47:55.044Z,57.16
2024-05-09T00:50:29.616Z,55.08
2024-05-09T00:53:01.829Z,38.99
2024-05-09T00:55:28.379Z,48.36
2024-05-09T00:57:54.832Z,50.22
2024-05-09T01:00:27.341Z,53.22
2024-05-09T01:03:02.225Z,40.69
2024-05-09T01:05:28.870Z,42.13
2024-05-09T01:07:55.404Z,38.74
2024-05-09T01:10:28.010Z,34.56
2024-05-09T01:13:00.242Z,35.24
2024-05-09T01:15:26.735Z,42.41
2024-05-09T01:17:53.357Z,48.22
2024-05-09T01:20:27.201Z,61.07
2024-05-09T01:22:58.618Z,61.13
2024-05-09T01:25:25.091Z,61.65
2024-05-09T01:27:51.556Z,61.33
2024-05-09T01:30:24.291Z,56.23
2024-05-09T01:32:54.430Z,66.70
2024-05-09T01:35:21.258Z,67.76
2024-05-09T01:37:47.807Z,59.92
2024-05-09T01:40:18.614Z,64.33
2024-05-09T01:42:51.390Z,73.62
2024-05-09T01:45:17.870Z,82.34
2024-05-09T01:47:44.605Z,85.29
2024-05-09T01:50:11.503Z,78.66
2024-05-09T01:52:39.791Z,83.48
2024-05-09T01:55:06.853Z,88.28
2024-05-09T01:57:33.537Z,100.40
2024-05-09T01:59:59.988Z,99.68
2024-05-09T02:02:26.500Z,102.80
2024-05-09T02:04:53.141Z,100.16
2024-05-09T02:07:19.635Z,105.57
2024-05-09T02:09:46.094Z,106.67
2024-05-09T02:12:12.830Z,114.17
2024-05-09T02:14:39.466Z,121.90
2024-05-09T02:17:06.028Z,146.04
2024-05-09T02:19:32.987Z,152.65
2024-05-09T02:21:59.569Z,158.25
2024-05-09T02:24:26.031Z,162.14
2024-05-09T02:26:52.549Z,179.45
2024-05-09T02:29:19.167Z,182.27
2024-05-09T02:31:45.717Z,192.83
2024-05-09T02:34:12.416Z,185.62
2024-05-09T02:36:38.919Z,175.97
2024-05-09T02:39:05.377Z,176.63
2024-05-09T02:41:31.924Z,162.71
2024-05-09T02:43:58.461Z,171.14
2024-05-09T02:46:24.932Z,161.94
2024-05-09T02:48:51.496Z,164.21
2024-05-09T02:51:18.065Z,207.69
2024-05-09T02:53:44.587Z,153.33
2024-05-09T02:56:11.189Z,131.37
2024-05-09T02:58:37.673Z,123.32
2024-05-09T03:01:04.211Z,124.99
2024-05-09T03:03:31.048Z,127.58
2024-05-09T03:05:57.927Z,123.20
2024-05-09T03:08:24.417Z,123.28
2024-05-09T03:10:50.928Z,118.37
2024-05-09T03:13:17.431Z,124.24
2024-05-09T03:15:44.005Z,116.10
2024-05-09T03:18:10.886Z,124.98
2024-05-09T03:20:37.750Z,133.79
2024-05-09T03:23:04.559Z,131.01
2024-05-09T03:25:31.413Z,143.64
2024-05-09T03:27:57.925Z,141.84
2024-05-09T03:30:31.172Z,136.09
2024-05-09T03:33:06.254Z,135.23
2024-05-09T03:35:32.856Z,170.79
2024-05-09T03:37:59.396Z,169.38
2024-05-09T03:40:29.040Z,135.06
2024-05-09T03:42:57.141Z,215.06
2024-05-09T03:45:23.599Z,188.39
2024-05-09T03:47:50.294Z,175.77
2024-05-09T03:50:22.768Z,165.06
2024-05-09T03:52:56.231Z,151.62
2024-05-09T03:55:22.708Z,148.16
2024-05-09T03:57:49.178Z,147.62
2024-05-09T04:00:22.092Z,161.45
2024-05-09T04:02:53.170Z,177.36
2024-05-09T04:05:19.858Z,165.18
2024-05-09T04:07:46.374Z,187.20
2024-05-09T04:10:21.074Z,181.80
2024-05-09T04:12:54.333Z,208.96
2024-05-09T04:15:20.822Z,194.22
2024-05-09T04:17:47.430Z,190.84
2024-05-09T04:20:24.206Z,179.84
2024-05-09T04:22:59.746Z,194.62
2024-05-09T04:25:26.250Z,204.42
2024-05-09T04:27:52.711Z,206.04
2024-05-09T04:30:26.282Z,236.96
2024-05-09T04:33:01.472Z,263.86
2024-05-09T04:35:28.139Z,259.00
2024-05-09T04:37:54.773Z,262.39
2024-05-09T04:40:28.525Z,241.24
2024-05-09T04:42:59.986Z,220.83
2024-05-09T04:45:26.492Z,188.96
2024-05-09T04:47:53.213Z,155.49
2024-05-09T04:50:29.324Z,145.09
2024-05-09T04:53:02.139Z,259.77
2024-05-09T04:55:28.641Z,193.60
2024-05-09T04:57:55.134Z,172.70
2024-05-09T05:00:28.859Z,149.64
2024-05-09T05:03:02.061Z,125.67
2024-05-09T05:05:28.762Z,111.22
2024-05-09T05:07:55.326Z,115.43
2024-05-09T05:10:29.447Z,180.58
2024-05-09T05:13:01.750Z,494.96
2024-05-09T05:15:28.222Z,125.41
2024-05-09T05:17:54.797Z,117.57
2024-05-09T05:20:27.786Z,129.07
2024-05-09T05:22:59.594Z,124.83
2024-05-09T05:25:26.226Z,114.92
2024-05-09T05:27:52.718Z,105.62
2024-05-09T05:30:24.992Z,104.19
2024-05-09T05:32:55.414Z,105.22
2024-05-09T05:35:22.147Z,105.29
2024-05-09T05:37:48.640Z,103.20
2024-05-09T05:40:25.015Z,123.36
2024-05-09T05:42:58.730Z,126.53
2024-05-09T05:45:25.221Z,135.24
2024-05-09T05:47:51.818Z,118.30
2024-05-09T05:50:27.251Z,147.23
2024-05-09T05:52:59.446Z,155.87
2024-05-09T05:55:25.914Z,143.42
2024-05-09T05:57:52.393Z,126.18
2024-05-09T06:00:29.020Z,100.60
2024-05-09T06:03:01.663Z,85.27
2024-05-09T06:05:28.335Z,57.07
2024-05-09T06:07:54.851Z,53.03
2024-05-09T06:10:25.782Z,56.23
2024-05-09T06:12:56.686Z,56.45
2024-05-09T06:15:23.132Z,65.71
2024-05-09T06:17:49.711Z,76.98
2024-05-09T06:20:23.421Z,73.69
2024-05-09T06:22:54.053Z,55.25
2024-05-09T06:25:20.666Z,48.28
2024-05-09T06:27:47.134Z,37.29
2024-05-09T06:30:24.906Z,120.18
2024-05-09T06:32:56.208Z,43.12
2024-05-09T06:35:22.765Z,44.26
2024-05-09T06:37:49.303Z,52.15
2024-05-09T06:40:21.210Z,65.23
2024-05-09T06:42:51.753Z,87.70
2024-05-09T06:45:18.244Z,100.77
2024-05-09T06:47:44.852Z,93.45
2024-05-09T06:50:19.702Z,82.60
2024-05-09T06:52:50.203Z,66.86
2024-05-09T06:55:16.672Z,99.54
2024-05-09T06:57:43.264Z,80.25
2024-05-09T07:00:15.516Z,75.29
2024-05-09T07:02:45.539Z,72.35
2024-05-09T07:05:12.252Z,71.52
2024-05-09T07:07:38.806Z,86.00
2024-05-09T07:10:07.776Z,90.26
2024-05-09T07:12:36.417Z,92.07
2024-05-09T07:15:02.883Z,79.27
2024-05-09T07:17:29.467Z,79.14
2024-05-09T07:19:56.237Z,85.93
2024-05-09T07:22:22.704Z,107.27
2024-05-09T07:24:49.184Z,121.87
2024-05-09T07:27:15.721Z,130.56
2024-05-09T07:29:42.204Z,124.64
2024-05-09T07:32:08.744Z,129.84
2024-05-09T07:34:35.442Z,204.23
2024-05-09T07:37:02.016Z,213.76
2024-05-09T07:39:28.477Z,225.39
2024-05-09T07:41:55.046Z,215.21
2024-05-09T07:44:21.558Z,143.09
2024-05-09T07:47:48.679Z,131.84
2024-05-09T07:53:27.130Z,277.42
2024-05-09T07:54:50.544Z,134.46
2024-05-09T07:57:17.170Z,108.75
2024-05-09T07:59:43.732Z,158.78
2024-05-09T08:02:10.497Z,227.42
2024-05-09T08:04:37.194Z,315.89
2024-05-09T08:07:03.858Z,297.58
2024-05-09T08:09:30.400Z,328.45
2024-05-09T08:11:56.918Z,307.40
2024-05-09T08:14:23.438Z,549.40
2024-05-09T08:16:49.927Z,665.15
2024-05-09T08:19:16.482Z,294.24
2024-05-09T08:21:43.022Z,153.97
2024-05-09T08:24:09.549Z,212.09
2024-05-09T08:26:36.007Z,136.79
2024-05-09T08:29:02.487Z,150.80
2024-05-09T08:31:29.077Z,63.64
2024-05-09T08:33:55.798Z,64.85
2024-05-09T08:36:22.322Z,61.68
2024-05-09T08:38:48.788Z,69.99
2024-05-09T08:41:15.237Z,65.30
2024-05-09T08:43:42.149Z,66.73
2024-05-09T08:46:08.786Z,71.56
2024-05-09T08:48:35.535Z,106.17
2024-05-09T08:51:03.344Z,75.78
2024-05-09T08:53:29.868Z,97.18
2024-05-09T08:55:56.348Z,60.39
2024-05-09T08:58:22.836Z,90.72
2024-05-09T09:00:50.026Z,90.27
2024-05-09T09:03:16.722Z,90.57
2024-05-09T09:05:47.794Z,90.24
2024-05-09T09:08:14.319Z,31.37
2024-05-09T09:10:45.645Z,33.76
2024-05-09T09:13:12.603Z,28.06
2024-05-09T09:15:39.369Z,32.68
2024-05-09T09:18:07.329Z,41.92
2024-05-09T09:20:37.333Z,28.13
2024-05-09T09:23:04.227Z,22.34
2024-05-09T09:25:32.355Z,23.67
2024-05-09T09:27:59.363Z,16.27
2024-05-09T09:30:34.901Z,17.98
2024-05-09T09:33:04.719Z,14.67
2024-05-09T09:35:39.219Z,34.33
2024-05-09T09:38:05.726Z,24.88
2024-05-09T09:40:34.136Z,16.79
2024-05-09T09:43:02.688Z,16.92
2024-05-09T09:45:29.248Z,18.24
2024-05-09T09:47:55.876Z,16.22
2024-05-09T09:50:27.938Z,19.60
2024-05-09T09:53:00.815Z,24.48
2024-05-09T09:55:27.482Z,33.89
2024-05-09T09:57:54.047Z,36.52
2024-05-09T10:00:26.840Z,29.94
2024-05-09T10:02:57.124Z,42.38
2024-05-09T10:05:24.048Z,44.76
2024-05-09T10:07:50.748Z,43.18
2024-05-09T10:10:22.971Z,40.83
2024-05-09T10:12:54.308Z,29.43
2024-05-09T10:15:25.301Z,36.37
2024-05-09T10:17:51.852Z,33.04
2024-05-09T10:20:22.186Z,16.94
2024-05-09T10:22:54.208Z,30.47
2024-05-09T10:25:23.953Z,20.19
2024-05-09T10:27:50.671Z,13.83
2024-05-09T10:30:25.452Z,14.25
2024-05-09T10:32:56.085Z,11.17
2024-05-09T10:35:23.024Z,24.51
2024-05-09T10:37:49.737Z,7.85
2024-05-09T10:40:23.377Z,8.49
2024-05-09T10:42:55.462Z,7.73
2024-05-09T10:45:22.059Z,21.55
2024-05-09T10:47:48.677Z,20.30
2024-05-09T10:50:22.318Z,8.70
2024-05-09T10:52:54.790Z,7.87
2024-05-09T10:55:21.651Z,7.28
2024-05-09T10:57:48.501Z,6.87
2024-05-09T11:00:23.324Z,5.18
2024-05-09T11:02:56.756Z,5.28
2024-05-09T11:05:23.541Z,4.87
2024-05-09T11:07:50.685Z,9.30
2024-05-09T11:12:44.385Z,5.02
2024-05-09T11:15:11.936Z,5.65
2024-05-09T11:17:38.726Z,6.58
2024-05-09T11:20:13.358Z,6.97
2024-05-09T11:22:47.888Z,32.56
2024-05-09T11:25:17.174Z,754.14
2024-05-09T11:27:44.107Z,1819.35
2024-05-09T11:30:14.333Z,995.68
2024-05-09T11:32:44.358Z,493.50
2024-05-09T11:35:10.967Z,79.31
2024-05-09T11:37:37.491Z,133.88
2024-05-09T11:40:06.938Z,131.12
2024-05-09T11:42:37.979Z,63.35
2024-05-09T11:45:06.876Z,97.38
2024-05-09T11:47:33.531Z,47.06
2024-05-09T11:50:00.621Z,998.64
2024-05-09T11:52:27.528Z,2375.38
2024-05-09T11:54:55.126Z,427.97
2024-05-09T11:57:21.693Z,13.05
2024-05-09T11:59:48.209Z,5.20
2024-05-09T12:02:15.023Z,5.62
2024-05-09T12:04:41.750Z,4.66
2024-05-09T12:07:12.977Z,7.17
2024-05-09T12:09:39.646Z,4.23
2024-05-09T12:12:06.397Z,4.11
2024-05-09T12:14:33.255Z,749.96
2024-05-09T12:16:59.783Z,2119.51
2024-05-09T12:19:28.649Z,2074.09
2024-05-09T12:21:58.082Z,1479.45
2024-05-09T12:24:24.618Z,817.09
2024-05-09T12:26:52.503Z,183.30
2024-05-09T12:29:20.046Z,111.60
2024-05-09T12:31:46.575Z,175.67
2024-05-09T12:34:15.857Z,78.31
2024-05-09T12:36:42.505Z,68.78
2024-05-09T12:39:16.675Z,80.36
2024-05-09T12:41:43.202Z,178.15
2024-05-09T12:44:09.827Z,222.55
2024-05-09T12:46:36.781Z,105.80
2024-05-09T12:49:03.510Z,58.33
2024-05-09T12:51:30.174Z,58.97
2024-05-09T12:53:56.740Z,59.42
2024-05-09T12:56:23.219Z,73.53
2024-05-09T12:58:52.450Z,72.31
2024-05-09T13:01:18.997Z,116.87
2024-05-09T13:03:45.789Z,32.02
2024-05-09T13:06:12.961Z,43.95
2024-05-09T13:08:39.461Z,22.49
2024-05-09T13:11:06.025Z,33.60
2024-05-09T13:13:32.576Z,12.62
2024-05-09T13:16:01.715Z,28.43
2024-05-09T13:18:31.717Z,7.09
2024-05-09T13:20:59.628Z,2.88
2024-05-09T13:23:26.968Z,12.84
2024-05-09T13:25:53.494Z,182.80
2024-05-09T13:28:21.998Z,16.32
2024-05-09T13:30:49.210Z,11.47
2024-05-09T13:33:15.982Z,29.00
2024-05-09T13:35:47.568Z,25.81
2024-05-09T13:38:17.184Z,61.97
2024-05-09T13:40:44.180Z,33.86
2024-05-09T13:43:11.433Z,54.70
2024-05-09T13:45:38.482Z,14.26
2024-05-09T13:48:07.518Z,8.44
2024-05-09T13:50:37.213Z,4.35
2024-05-09T13:53:03.827Z,2.68
2024-05-09T13:55:30.948Z,2.51
2024-05-09T13:58:09.669Z,2.40
2024-05-09T14:00:44.732Z,2.78
2024-05-09T14:03:15.907Z,3.90
2024-05-09T14:08:23.203Z,2.59
2024-05-09T14:10:52.432Z,3.79
2024-05-09T14:13:19.946Z,2.19
2024-05-09T14:15:47.096Z,2.08
2024-05-09T14:18:14.444Z,2.15
2024-05-09T14:20:41.434Z,3.24
2024-05-09T14:23:07.951Z,2.13
2024-05-09T14:25:37.694Z,2.37
2024-05-09T14:28:08.050Z,2.56
2024-05-09T14:30:37.727Z,2.42
2024-05-09T14:33:06.493Z,1.82
2024-05-09T14:35:36.279Z,2.00
2024-05-09T14:38:02.761Z,2.90
2024-05-09T14:40:39.285Z,2.51
2024-05-09T14:43:09.575Z,2.36
2024-05-09T14:45:37.000Z,2.08
2024-05-09T14:48:05.998Z,2.60
2024-05-09T14:50:37.140Z,2.54
2024-05-09T14:53:08.573Z,2.41
2024-05-09T14:55:37.214Z,2.96
2024-05-09T14:58:05.175Z,4.40
2024-05-09T15:00:36.255Z,2.29
2024-05-09T15:03:03.994Z,2.40
2024-05-09T15:05:31.655Z,2.19
2024-05-09T15:07:59.472Z,2.02
2024-05-09T15:10:33.830Z,2.11
2024-05-09T15:13:03.001Z,2.00
2024-05-09T15:15:30.152Z,2.38
2024-05-09T15:17:57.149Z,2.26
2024-05-09T15:20:31.298Z,2.15
2024-05-09T15:23:02.652Z,2.24
2024-05-09T15:25:29.819Z,2.27
2024-05-09T15:28:08.363Z,2.38
2024-05-09T15:30:35.407Z,2.18
2024-05-09T15:33:02.185Z,12.99
2024-05-09T15:35:29.716Z,2.19
2024-05-09T15:37:56.642Z,2.05
2024-05-09T15:40:31.679Z,6.38
2024-05-09T15:43:05.217Z,17.99
2024-05-09T15:45:32.387Z,6.17
2024-05-09T15:47:59.612Z,9.79
2024-05-09T15:50:36.056Z,16.34
2024-05-09T15:53:06.594Z,25.14
2024-05-09T15:55:34.356Z,49.76
2024-05-09T15:58:01.620Z,67.11
2024-05-09T16:00:36.084Z,49.39
2024-05-09T16:03:06.346Z,21.53
2024-05-09T16:05:33.103Z,11.94
2024-05-09T16:07:59.869Z,4.12
2024-05-09T16:10:32.303Z,368.72
2024-05-09T16:13:00.832Z,41.70
2024-05-09T16:15:27.602Z,3.41
2024-05-09T16:17:54.202Z,4.35
2024-05-09T16:20:33.445Z,7.42
2024-05-09T16:23:05.604Z,5.44
2024-05-09T16:25:32.390Z,5.18
2024-05-09T16:27:58.895Z,6.68
2024-05-09T16:30:33.825Z,17.16
2024-05-09T16:33:04.028Z,17.47
2024-05-09T16:35:33.890Z,46.90
2024-05-09T16:38:02.654Z,49.60
2024-05-09T16:40:36.603Z,55.55
2024-05-09T16:43:06.685Z,36.83
2024-05-09T16:45:33.846Z,16.25
2024-05-09T16:48:00.692Z,4.41
2024-05-09T16:50:32.509Z,3.89
2024-05-09T16:53:03.962Z,4.46
2024-05-09T16:55:34.019Z,2.99
2024-05-09T16:58:01.021Z,3.27
2024-05-09T17:00:39.165Z,3.69
2024-05-09T17:03:09.626Z,3.47
2024-05-09T17:05:37.138Z,4.69
2024-05-09T17:08:03.953Z,3.31
2024-05-09T17:10:33.730Z,5.22
2024-05-09T17:13:01.886Z,2.70
2024-05-09T17:15:30.780Z,2.67
2024-05-09T17:17:57.351Z,19.07
2024-05-09T17:20:31.367Z,50.27
2024-05-09T17:23:00.934Z,7.74
2024-05-09T17:25:27.743Z,2.78
2024-05-09T17:27:57.155Z,2.84
2024-05-09T17:30:29.332Z,8.38
2024-05-09T17:33:02.307Z,198.46
2024-05-09T17:35:29.018Z,2.49
2024-05-09T17:37:55.832Z,2.63
2024-05-09T17:40:30.957Z,2.95
2024-05-09T17:43:01.812Z,5.12
2024-05-09T17:45:29.895Z,47.09
2024-05-09T17:47:56.645Z,9.93
2024-05-09T17:50:30.848Z,3.16
2024-05-09T17:53:01.831Z,3.04
2024-05-09T17:55:31.124Z,3.21
2024-05-09T17:57:57.889Z,2.97
2024-05-09T18:00:34.164Z,3.16
2024-05-09T18:03:06.841Z,3.17
2024-05-09T18:05:33.804Z,3.85
2024-05-09T18:08:00.452Z,4.66
2024-05-09T18:10:34.823Z,14.97
2024-05-09T18:13:04.521Z,10.17
2024-05-09T18:15:31.882Z,9.15
2024-05-09T18:17:58.505Z,10.10
2024-05-09T18:20:36.096Z,11.32
2024-05-09T18:23:08.364Z,7.53
2024-05-09T18:25:35.240Z,9.78
2024-05-09T18:28:01.888Z,5.55
2024-05-09T18:30:34.371Z,4.33
2024-05-09T18:33:03.009Z,5.26
2024-05-09T18:35:29.985Z,5.12
2024-05-09T18:37:59.900Z,5.01
2024-05-09T18:40:33.415Z,13.04
2024-05-09T18:43:03.122Z,9.49
2024-05-09T18:45:32.763Z,8.77
2024-05-09T18:47:59.460Z,13.47
2024-05-09T18:50:34.847Z,33.86
2024-05-09T18:53:04.777Z,53.12
2024-05-09T18:55:31.307Z,55.56
2024-05-09T18:57:58.144Z,49.74
2024-05-09T19:00:33.453Z,39.74
2024-05-09T19:03:03.839Z,27.51
2024-05-09T19:05:30.833Z,23.40
2024-05-09T19:07:57.485Z,13.84
2024-05-09T19:10:28.799Z,13.57
2024-05-09T19:13:00.176Z,15.27
2024-05-09T19:15:26.880Z,13.09
2024-05-09T19:17:53.449Z,13.33
2024-05-09T19:20:25.533Z,12.23
2024-05-09T19:22:58.458Z,10.28
2024-05-09T19:25:25.277Z,9.27
2024-05-09T19:27:51.862Z,12.27
2024-05-09T19:30:28.927Z,22.90
2024-05-09T19:33:02.653Z,46.11
2024-05-09T19:35:29.332Z,70.11
2024-05-09T19:37:55.779Z,105.78
2024-05-09T19:40:28.979Z,154.82
2024-05-09T19:42:58.691Z,192.69
2024-05-09T19:45:25.335Z,216.77
2024-05-09T19:47:52.925Z,229.35
2024-05-09T19:50:26.390Z,225.36
2024-05-09T19:52:59.053Z,195.88
2024-05-09T19:55:25.559Z,171.02
2024-05-09T19:57:52.062Z,140.41
2024-05-09T20:00:25.954Z,145.17
2024-05-09T20:02:55.942Z,126.22
2024-05-09T20:05:23.027Z,113.33
2024-05-09T20:07:49.700Z,98.12
2024-05-09T20:10:23.459Z,78.13
2024-05-09T20:12:53.201Z,69.73
2024-05-09T20:15:19.823Z,67.88
2024-05-09T20:17:46.721Z,65.42
2024-05-09T20:20:23.552Z,55.38
2024-05-09T20:22:58.433Z,52.39
2024-05-09T20:25:24.950Z,44.95
2024-05-09T20:27:51.485Z,46.34
2024-05-09T20:30:25.481Z,37.33
2024-05-09T20:32:58.080Z,39.01
2024-05-09T20:35:25.087Z,34.65
2024-05-09T20:37:51.644Z,30.53
2024-05-09T20:40:25.789Z,32.38
2024-05-09T20:42:58.592Z,41.20
2024-05-09T20:45:25.178Z,48.70
2024-05-09T20:47:51.791Z,53.14
2024-05-09T20:50:27.984Z,67.34
2024-05-09T20:53:02.791Z,67.18
2024-05-09T20:55:29.415Z,83.87
2024-05-09T20:57:55.990Z,98.78
2024-05-09T21:00:29.937Z,105.56
2024-05-09T21:03:04.359Z,105.98
2024-05-09T21:05:31.451Z,105.91
2024-05-09T21:07:58.331Z,111.06
2024-05-09T21:10:29.678Z,116.19
2024-05-09T21:12:58.266Z,144.56
2024-05-09T21:15:27.387Z,110.48
2024-05-09T21:20:34.602Z,102.37
2024-05-09T21:23:02.123Z,97.75
2024-05-09T21:25:29.043Z,96.12
2024-05-09T21:27:55.752Z,97.02
2024-05-09T21:30:32.060Z,97.92
2024-05-09T21:33:06.993Z,95.41
2024-05-09T21:35:33.589Z,111.04
2024-05-09T21:38:00.643Z,103.35
2024-05-09T21:40:33.950Z,93.77
2024-05-09T21:43:02.443Z,71.80
2024-05-09T21:45:29.671Z,76.51
2024-05-09T21:47:56.252Z,61.74
2024-05-09T21:50:28.538Z,84.23
2024-05-09T21:53:02.818Z,109.78
2024-05-09T21:55:29.321Z,45.58
2024-05-09T21:57:55.866Z,48.13
2024-05-09T22:00:29.166Z,62.62
2024-05-09T22:03:02.419Z,84.76
2024-05-09T22:05:29.489Z,40.30
2024-05-09T22:07:56.274Z,54.27
2024-05-09T22:10:27.059Z,74.82
2024-05-09T22:12:59.629Z,80.04
2024-05-09T22:15:26.130Z,106.19
2024-05-09T22:17:52.793Z,194.52
2024-05-09T22:20:28.606Z,277.04
2024-05-09T22:23:01.074Z,248.21
2024-05-09T22:25:30.225Z,254.25
2024-05-09T22:27:57.284Z,268.91
2024-05-09T22:30:31.130Z,284.97
2024-05-09T22:33:01.535Z,276.70
2024-05-09T22:35:28.054Z,275.82
2024-05-09T22:37:54.509Z,279.85
2024-05-09T22:40:29.414Z,278.42
2024-05-09T22:43:05.065Z,289.14
2024-05-09T22:45:31.626Z,297.13
2024-05-09T22:47:58.286Z,300.88
2024-05-09T22:50:27.063Z,304.80
2024-05-09T22:52:58.814Z,341.25
2024-05-09T22:55:25.281Z,296.71
2024-05-09T22:57:51.890Z,371.94
2024-05-09T23:00:21.788Z,296.10
2024-05-09T23:02:52.840Z,268.56
2024-05-09T23:05:19.547Z,273.23
2024-05-09T23:07:46.090Z,263.51
2024-05-09T23:10:17.354Z,249.85
2024-05-09T23:12:51.274Z,202.18
2024-05-09T23:15:17.743Z,197.29
2024-05-09T23:17:44.448Z,141.38
2024-05-09T23:20:11.747Z,92.19
2024-05-09T23:22:40.939Z,73.85
2024-05-09T23:25:07.443Z,74.40
2024-05-09T23:27:33.983Z,90.51
2024-05-09T23:30:00.511Z,105.56
2024-05-09T23:32:27.075Z,103.02
2024-05-09T23:34:53.628Z,100.95
2024-05-09T23:37:20.189Z,108.60
2024-05-09T23:39:46.710Z,109.84
2024-05-09T23:42:13.228Z,121.95
2024-05-09T23:44:39.722Z,130.83
2024-05-09T23:47:08.459Z,127.24
2024-05-09T23:49:36.664Z,139.54
2024-05-09T23:52:03.297Z,140.58
2024-05-09T23:54:29.792Z,139.54
2024-05-09T23:56:56.259Z,138.08
2024-05-09T23:59:22.802Z,134.73
